createdAt,value
2022-09-28T00:01:16.634Z,99508.25
2022-09-28T00:03:49.829Z,99501.63
2022-09-28T00:06:27.292Z,99501.63
2022-09-28T00:08:59.334Z,99502.47
2022-09-28T00:11:31.414Z,99511.19
2022-09-28T00:14:03.987Z,99502.03
2022-09-28T00:16:39.081Z,99503.91
2022-09-28T00:19:12.535Z,99503.66
2022-09-28T00:21:44.447Z,99498.88
2022-09-28T00:24:17.060Z,99503.66
2022-09-28T00:26:51.539Z,99504.13
2022-09-28T00:29:31.995Z,99501.63
2022-09-28T00:32:06.322Z,99499.53
2022-09-28T00:34:45.752Z,99489.97
2022-09-28T00:37:19.088Z,99495.38
2022-09-28T00:39:51.175Z,99495.38
2022-09-28T00:42:25.430Z,99488.34
2022-09-28T00:44:58.611Z,99485.50
2022-09-28T00:47:41.916Z,99481.13
2022-09-28T00:50:30.023Z,99480.28
2022-09-28T00:53:09.531Z,99480.75
2022-09-28T00:56:00.570Z,99475.91
2022-09-28T00:58:36.030Z,99486.53
2022-09-28T01:01:08.512Z,99470.72
2022-09-28T01:03:45.195Z,99474.72
2022-09-28T01:06:21.720Z,99473.88
2022-09-28T01:08:56.722Z,99472.22
2022-09-28T01:11:31.488Z,99471.03
2022-09-28T01:14:03.677Z,99469.59
2022-09-28T01:17:00.155Z,99473.56
2022-09-28T01:19:46.289Z,99471.53
2022-09-28T01:22:58.977Z,99466.78
2022-09-28T01:25:39.190Z,99467.00
2022-09-28T01:28:14.566Z,99476.16
2022-09-28T01:30:49.435Z,99472.66
2022-09-28T01:33:24.528Z,99469.53
2022-09-28T01:36:21.159Z,99465.41
2022-09-28T01:38:57.608Z,99467.50
2022-09-28T01:41:30.443Z,99465.41
2022-09-28T01:44:03.396Z,99460.44
2022-09-28T01:46:44.799Z,99458.19
2022-09-28T01:49:26.177Z,99456.72
2022-09-28T01:52:07.553Z,99458.00
2022-09-28T01:54:46.267Z,99460.09
2022-09-28T01:57:49.077Z,99453.06
2022-09-28T02:00:23.088Z,99453.88
2022-09-28T02:03:07.997Z,99453.06
2022-09-28T02:05:55.358Z,99447.66
2022-09-28T02:08:32.412Z,99450.94
2022-09-28T02:11:15.073Z,99444.28
2022-09-28T02:14:06.194Z,99445.34
2022-09-28T02:16:46.582Z,99443.47
2022-09-28T02:19:21.048Z,99440.97
2022-09-28T02:22:17.651Z,99441.81
2022-09-28T02:24:49.511Z,99439.72
2022-09-28T02:27:36.538Z,99443.00
2022-09-28T02:30:08.976Z,99443.00
2022-09-28T02:32:45.202Z,99432.19
2022-09-28T02:35:18.676Z,99434.91
2022-09-28T02:37:50.637Z,99423.88
2022-09-28T02:40:34.408Z,99435.53
2022-09-28T02:43:14.973Z,99434.03
2022-09-28T02:46:23.225Z,99434.63
2022-09-28T02:49:21.865Z,99431.47
2022-09-28T02:52:03.475Z,99427.50
2022-09-28T02:55:02.827Z,99437.06
2022-09-28T02:57:46.905Z,99434.13
2022-09-28T03:00:21.041Z,99427.44
2022-09-28T03:03:17.869Z,99424.72
2022-09-28T03:06:14.324Z,99426.22
2022-09-28T03:09:18.887Z,99429.59
2022-09-28T03:11:57.147Z,99432.53
2022-09-28T03:14:29.025Z,99433.34
2022-09-28T03:17:04.175Z,99430.88
2022-09-28T03:19:38.390Z,99421.72
2022-09-28T03:22:10.280Z,99426.06
2022-09-28T03:24:42.223Z,99425.03
2022-09-28T03:27:14.196Z,99425.03
2022-09-28T03:29:46.403Z,99428.78
2022-09-28T03:32:18.512Z,99421.72
2022-09-28T03:34:50.531Z,99416.75
2022-09-28T03:37:22.753Z,99423.22
2022-09-28T03:39:54.607Z,99417.19
2022-09-28T03:42:27.674Z,99421.56
2022-09-28T03:44:59.866Z,99415.56
2022-09-28T03:47:31.909Z,99412.84
2022-09-28T03:50:04.233Z,99420.13
2022-09-28T03:52:36.236Z,99415.16
2022-09-28T03:55:08.822Z,99419.72
2022-09-28T03:57:40.953Z,99421.22
2022-09-28T04:00:13.166Z,99421.44
2022-09-28T04:02:48.395Z,99420.00
2022-09-28T04:05:20.860Z,99415.66
2022-09-28T04:07:56.119Z,99416.09
2022-09-28T04:10:28.145Z,99421.94
2022-09-28T04:13:00.126Z,99421.34
2022-09-28T04:15:32.130Z,99417.19
2022-09-28T04:18:11.136Z,99420.72
2022-09-28T04:21:10.469Z,99422.22
2022-09-28T04:23:47.075Z,99421.59
2022-09-28T04:26:23.491Z,99430.16
2022-09-28T04:29:14.244Z,99422.50
2022-09-28T04:31:51.122Z,99417.50
2022-09-28T04:34:24.265Z,99415.25
2022-09-28T04:36:56.267Z,99424.84
2022-09-28T04:39:28.351Z,99429.63
2022-09-28T04:42:01.857Z,99426.75
2022-09-28T04:44:34.206Z,99434.28
2022-09-28T04:47:12.982Z,99441.75
2022-09-28T04:50:03.411Z,99427.03
2022-09-28T04:52:40.136Z,99429.72
2022-09-28T04:55:13.581Z,99420.81
2022-09-28T04:57:45.591Z,99427.88
2022-09-28T05:00:17.600Z,99427.63
2022-09-28T05:03:02.710Z,99423.88
2022-09-28T05:05:53.017Z,99423.88
2022-09-28T05:08:43.346Z,99427.63
2022-09-28T05:11:15.408Z,99425.16
2022-09-28T05:13:48.474Z,99429.50
2022-09-28T05:16:21.661Z,99435.13
2022-09-28T05:19:14.390Z,99436.56
2022-09-28T05:21:47.020Z,99433.03
2022-09-28T05:24:19.229Z,99429.28
2022-09-28T05:26:55.817Z,99427.63
2022-09-28T05:29:31.415Z,99420.59
2022-09-28T05:32:44.238Z,99418.94
2022-09-28T05:35:23.368Z,99419.97
2022-09-28T05:37:56.104Z,99424.34
2022-09-28T05:40:28.248Z,99421.19
2022-09-28T05:43:01.922Z,99428.88
2022-09-28T05:45:34.673Z,99419.31
2022-09-28T05:48:08.707Z,99425.34
2022-09-28T05:50:40.737Z,99427.22
2022-09-28T05:53:13.280Z,99426.38
2022-09-28T05:55:45.305Z,99431.78
2022-09-28T05:58:18.360Z,99432.38
2022-09-28T06:00:55.084Z,99420.53
2022-09-28T06:03:27.315Z,99425.72
2022-09-28T06:06:01.863Z,99419.28
2022-09-28T06:08:35.003Z,99427.78
2022-09-28T06:11:28.145Z,99422.75
2022-09-28T06:14:02.746Z,99427.09
2022-09-28T06:16:38.258Z,99430.44
2022-09-28T06:19:14.363Z,99438.75
2022-09-28T06:22:01.409Z,99433.34
2022-09-28T06:24:35.213Z,99439.13
2022-09-28T06:27:07.362Z,99445.72
2022-09-28T06:29:39.314Z,99445.72
2022-09-28T06:32:12.403Z,99450.09
2022-09-28T06:34:44.483Z,99456.13
2022-09-28T06:37:16.787Z,99449.03
2022-09-28T06:39:48.800Z,99450.69
2022-09-28T06:42:20.833Z,99447.75
2022-09-28T06:45:25.269Z,99442.72
2022-09-28T06:48:15.029Z,99451.44
2022-09-28T06:50:47.561Z,99459.34
2022-09-28T06:53:37.999Z,99469.53
2022-09-28T06:56:32.752Z,99470.34
2022-09-28T06:59:05.318Z,99466.22
2022-09-28T07:01:37.332Z,99466.66
2022-09-28T07:04:31.136Z,99461.88
2022-09-28T07:07:21.971Z,99472.22
2022-09-28T07:10:13.509Z,99468.03
2022-09-28T07:13:10.403Z,99473.03
2022-09-28T07:15:57.457Z,99477.97
2022-09-28T07:18:30.012Z,99470.47
2022-09-28T07:21:04.089Z,99475.44
2022-09-28T07:23:50.155Z,99470.03
2022-09-28T07:26:30.976Z,99477.94
2022-09-28T07:29:16.853Z,99484.34
2022-09-28T07:32:01.153Z,99486.16
2022-09-28T07:34:58.164Z,99486.53
2022-09-28T07:37:47.515Z,99484.84
2022-09-28T07:40:38.157Z,99484.59
2022-09-28T07:43:10.440Z,99489.78
2022-09-28T07:45:45.336Z,99490.16
2022-09-28T07:48:17.560Z,99488.91
2022-09-28T07:51:08.667Z,99497.03
2022-09-28T07:53:54.115Z,99499.72
2022-09-28T07:56:46.009Z,99510.16
2022-09-28T07:59:25.156Z,99503.69
2022-09-28T08:02:17.926Z,99502.44
2022-09-28T08:04:50.283Z,99512.19
2022-09-28T08:07:25.608Z,99510.09
2022-09-28T08:10:07.562Z,99510.72
2022-09-28T08:13:04.781Z,99514.63
2022-09-28T08:15:48.457Z,99515.00
2022-09-28T08:18:37.097Z,99519.16
2022-09-28T08:21:29.198Z,99521.19
2022-09-28T08:24:01.323Z,99528.84
2022-09-28T08:26:33.655Z,99528.41
2022-09-28T08:29:06.332Z,99525.63
2022-09-28T08:32:06.270Z,99533.47
2022-09-28T08:34:41.615Z,99531.34
2022-09-28T08:37:29.469Z,99536.56
2022-09-28T08:40:51.771Z,99533.00
2022-09-28T08:44:00.238Z,99532.59
2022-09-28T08:47:34.123Z,99538.13
2022-09-28T08:50:59.092Z,99536.44
2022-09-28T08:54:15.736Z,99539.91
2022-09-28T08:57:03.215Z,99536.53
2022-09-28T08:59:47.915Z,99538.94
2022-09-28T09:02:29.141Z,99540.16
2022-09-28T09:05:20.010Z,99539.53
2022-09-28T09:08:22.242Z,99546.38
2022-09-28T09:11:13.701Z,99548.66
2022-09-28T09:14:12.988Z,99544.66
2022-09-28T09:17:06.918Z,99549.22
2022-09-28T09:20:42.549Z,99551.72
2022-09-28T09:23:44.384Z,99550.81
2022-09-28T09:26:22.788Z,99547.50
2022-09-28T09:29:18.400Z,99557.13
2022-09-28T09:32:13.656Z,99555.72
2022-09-28T09:35:10.121Z,99561.34
2022-09-28T09:38:16.072Z,99557.13
2022-09-28T09:41:40.779Z,99568.75
2022-09-28T09:45:05.985Z,99563.44
2022-09-28T09:48:15.592Z,99552.34
2022-09-28T09:50:51.408Z,99557.22
2022-09-28T09:53:24.631Z,99559.16
2022-09-28T09:56:02.821Z,99557.75
2022-09-28T09:58:47.974Z,99554.28
2022-09-28T10:01:35.903Z,99560.41
2022-09-28T10:04:34.033Z,99556.19
2022-09-28T10:07:19.088Z,99560.34
2022-09-28T10:09:54.167Z,99555.94
2022-09-28T10:12:49.429Z,99557.47
2022-09-28T10:15:30.387Z,99557.56
2022-09-28T10:18:28.602Z,99553.91
2022-09-28T10:21:21.909Z,99556.72
2022-09-28T10:24:02.784Z,99552.44
2022-09-28T10:26:38.941Z,99551.50
2022-09-28T10:29:17.862Z,99557.34
2022-09-28T10:31:51.885Z,99557.34
2022-09-28T10:34:33.463Z,99557.97
2022-09-28T10:37:11.991Z,99557.34
2022-09-28T10:40:28.379Z,99560.91
2022-09-28T10:43:02.466Z,99556.53
2022-09-28T10:45:37.197Z,99555.00
2022-09-28T10:48:22.765Z,99559.50
2022-09-28T10:51:00.671Z,99554.34
2022-09-28T10:53:34.419Z,99557.69
2022-09-28T10:56:28.025Z,99556.00
2022-09-28T10:59:29.473Z,99555.19
2022-09-28T11:02:23.219Z,99552.97
2022-09-28T11:04:59.003Z,99551.91
2022-09-28T11:07:43.976Z,99549.44
2022-09-28T11:10:20.977Z,99551.78
2022-09-28T11:12:54.035Z,99554.47
2022-09-28T11:15:33.849Z,99559.78
2022-09-28T11:18:31.580Z,99557.38
2022-09-28T11:21:32.274Z,99551.94
2022-09-28T11:24:20.146Z,99553.88
2022-09-28T11:27:00.272Z,99560.06
2022-09-28T11:29:46.982Z,99552.13
2022-09-28T11:32:43.381Z,99551.88
2022-09-28T11:35:51.447Z,99541.34
2022-09-28T11:39:01.318Z,99539.94
2022-09-28T11:42:16.114Z,99551.94
2022-09-28T11:45:09.511Z,99534.47
2022-09-28T11:48:30.732Z,99540.13
2022-09-28T11:51:21.640Z,99529.59
2022-09-28T11:54:44.801Z,99535.56
2022-09-28T11:57:34.464Z,99536.19
2022-09-28T12:00:35.299Z,99531.16
2022-09-28T12:04:04.739Z,99529.63
2022-09-28T12:07:02.352Z,99520.91
2022-09-28T12:09:54.154Z,99530.13
2022-09-28T12:12:56.634Z,99523.13
2022-09-28T12:18:56.832Z,99527.78
2022-09-28T12:21:51.502Z,99529.28
2022-09-28T12:24:54.103Z,99517.16
2022-09-28T12:27:51.973Z,99512.53
2022-09-28T12:30:40.880Z,99513.06
2022-09-28T12:33:26.180Z,99515.00
2022-09-28T12:36:08.103Z,99511.25
2022-09-28T12:39:30.788Z,99511.91
2022-09-28T12:43:06.972Z,99512.00
2022-09-28T12:46:19.097Z,99509.53
2022-09-28T12:50:13.846Z,99521.03
2022-09-28T12:52:45.564Z,99517.50
2022-09-28T12:59:37.308Z,99516.81
2022-09-28T13:02:37.044Z,99523.06
2022-09-28T13:05:34.307Z,99513.03
2022-09-28T13:09:04.492Z,99517.97
2022-09-28T13:12:08.334Z,99520.31
2022-09-28T13:15:10.005Z,99520.59
2022-09-28T13:18:17.624Z,99520.91
2022-09-28T13:21:14.801Z,99521.88
2022-09-28T13:24:31.779Z,99517.63
2022-09-28T13:30:32.471Z,99534.56
2022-09-28T13:33:37.835Z,99526.44
2022-09-28T13:36:38.818Z,99528.19
2022-09-28T13:39:43.752Z,99527.56
2022-09-28T13:42:55.330Z,99536.78
2022-09-28T13:45:48.790Z,99530.84
2022-09-28T13:49:06.172Z,99538.28
2022-09-28T13:52:07.962Z,99537.56
2022-09-28T13:55:54.901Z,99545.69
2022-09-28T13:58:50.379Z,99542.16
2022-09-28T14:02:10.871Z,99541.63
2022-09-28T14:05:51.708Z,99545.69
2022-09-28T14:08:38.810Z,99538.84
2022-09-28T14:11:36.935Z,99545.63
2022-09-28T14:14:17.154Z,99540.66
2022-09-28T14:16:50.256Z,99549.88
2022-09-28T14:19:31.066Z,99549.56
2022-09-28T14:22:14.685Z,99546.22
2022-09-28T14:25:07.609Z,99553.56
2022-09-28T14:28:04.942Z,99548.00
2022-09-28T14:30:43.012Z,99550.97
2022-09-28T14:33:20.961Z,99556.41
2022-09-28T14:36:02.253Z,99556.34
2022-09-28T14:39:04.578Z,99558.97
2022-09-28T14:41:38.446Z,99558.25
2022-09-28T14:44:16.450Z,99555.75
2022-09-28T14:46:48.734Z,99552.19
2022-09-28T14:49:20.625Z,99558.63
2022-09-28T14:51:58.343Z,99566.16
2022-09-28T14:54:48.431Z,99560.53
2022-09-28T14:57:23.058Z,99567.31
2022-09-28T14:59:55.565Z,99567.06
2022-09-28T15:02:37.236Z,99563.22
2022-09-28T15:05:16.265Z,99563.16
2022-09-28T15:07:52.750Z,99560.97
2022-09-28T15:10:32.431Z,99574.56
2022-09-28T15:13:15.916Z,99577.75
2022-09-28T15:15:50.770Z,99578.19
2022-09-28T15:18:48.295Z,99578.88
2022-09-28T15:21:20.708Z,99576.34
2022-09-28T15:23:52.706Z,99581.81
2022-09-28T15:26:32.318Z,99580.16
2022-09-28T15:29:17.009Z,99588.56
2022-09-28T15:31:54.157Z,99583.94
2022-09-28T15:34:52.845Z,99589.91
2022-09-28T15:37:30.034Z,99594.66
2022-09-28T15:40:02.361Z,99598.91
2022-09-28T15:42:37.605Z,99606.34
2022-09-28T15:45:30.774Z,99604.81
2022-09-28T15:48:20.610Z,99608.22
2022-09-28T15:51:11.590Z,99610.84
2022-09-28T15:53:47.339Z,99609.19
2022-09-28T15:56:19.279Z,99610.34
2022-09-28T15:59:10.744Z,99610.66
2022-09-28T16:01:43.915Z,99616.94
2022-09-28T16:04:50.572Z,99615.31
2022-09-28T16:07:34.103Z,99622.91
2022-09-28T16:10:11.750Z,99626.53
2022-09-28T16:12:48.660Z,99619.25
2022-09-28T16:15:27.303Z,99616.63
2022-09-28T16:18:04.414Z,99625.16
2022-09-28T16:20:39.097Z,99620.38
2022-09-28T16:23:33.222Z,99627.28
2022-09-28T16:26:16.182Z,99623.09
2022-09-28T16:28:51.777Z,99627.59
2022-09-28T16:31:29.667Z,99632.94
2022-09-28T16:34:20.004Z,99636.63
2022-09-28T16:36:51.964Z,99636.03
2022-09-28T16:39:24.984Z,99636.53
2022-09-28T16:42:01.822Z,99641.38
2022-09-28T16:44:36.420Z,99639.50
2022-09-28T16:47:08.264Z,99638.59
2022-09-28T16:49:40.205Z,99647.44
2022-09-28T16:52:12.384Z,99639.47
2022-09-28T16:55:17.667Z,99645.34
2022-09-28T16:57:55.507Z,99644.41
2022-09-28T17:00:27.535Z,99649.06
2022-09-28T17:02:59.777Z,99651.19
2022-09-28T17:05:31.851Z,99646.25
2022-09-28T17:08:04.312Z,99649.66
2022-09-28T17:13:45.951Z,99653.59
2022-09-28T17:16:32.692Z,99653.69
2022-09-28T17:19:18.140Z,99661.50
2022-09-28T17:21:52.227Z,99663.91
2022-09-28T17:24:24.098Z,99666.84
2022-09-28T17:26:56.132Z,99666.22
2022-09-28T17:29:28.122Z,99667.75
2022-09-28T17:32:00.002Z,99665.53
2022-09-28T17:34:32.154Z,99667.91
2022-09-28T17:37:04.242Z,99668.72
2022-09-28T17:39:36.277Z,99664.91
2022-09-28T17:42:08.247Z,99672.00
2022-09-28T17:44:40.124Z,99677.44
2022-09-28T17:47:12.061Z,99677.94
2022-09-28T17:49:45.971Z,99681.72
2022-09-28T17:52:18.266Z,99681.09
2022-09-28T17:54:50.164Z,99689.25
2022-09-28T17:57:22.329Z,99691.97
2022-09-28T17:59:54.262Z,99693.06
2022-09-28T18:02:26.235Z,99689.75
2022-09-28T18:04:58.690Z,99687.03
2022-09-28T18:07:31.811Z,99679.72
2022-09-28T18:10:05.866Z,99685.97
2022-09-28T18:12:37.809Z,99683.72
2022-09-28T18:15:10.831Z,99700.00
2022-09-28T18:17:42.908Z,99694.84
2022-09-28T18:20:14.838Z,99696.72
2022-09-28T18:22:46.831Z,99695.28
2022-09-28T18:25:18.805Z,99696.59
2022-09-28T18:27:53.060Z,99702.47
2022-09-28T18:30:25.053Z,99698.59
2022-09-28T18:32:57.132Z,99696.59
2022-09-28T18:35:29.145Z,99702.25
2022-09-28T18:38:01.081Z,99704.84
2022-09-28T18:40:34.368Z,99712.41
2022-09-28T18:43:06.330Z,99711.22
2022-09-28T18:45:38.389Z,99718.75
2022-09-28T18:48:10.309Z,99712.16
2022-09-28T18:50:43.058Z,99716.41
2022-09-28T18:53:15.284Z,99716.00
2022-09-28T18:55:47.171Z,99726.03
2022-09-28T18:58:19.021Z,99725.47
2022-09-28T19:00:50.885Z,99724.03
2022-09-28T19:03:23.131Z,99732.16
2022-09-28T19:05:55.676Z,99727.00
2022-09-28T19:08:27.912Z,99733.47
2022-09-28T19:11:07.437Z,99732.88
2022-09-28T19:13:40.017Z,99728.97
2022-09-28T19:16:15.872Z,99732.16
2022-09-28T19:18:48.472Z,99743.00
2022-09-28T19:21:20.683Z,99747.25
2022-09-28T19:23:55.063Z,99749.34
2022-09-28T19:26:27.909Z,99742.25
2022-09-28T19:29:00.313Z,99751.00
2022-09-28T19:31:32.635Z,99757.63
2022-09-28T19:34:05.129Z,99760.13
2022-09-28T19:36:37.040Z,99759.88
2022-09-28T19:39:13.376Z,99765.56
2022-09-28T19:41:51.506Z,99767.44
2022-09-28T19:44:25.650Z,99766.00
2022-09-28T19:47:13.074Z,99772.47
2022-09-28T19:49:44.974Z,99772.94
2022-09-28T19:52:17.437Z,99776.72
2022-09-28T19:54:57.334Z,99777.19
2022-09-28T19:57:32.448Z,99777.63
2022-09-28T20:00:04.891Z,99775.59
2022-09-28T20:02:37.136Z,99777.13
2022-09-28T20:05:09.245Z,99779.25
2022-09-28T20:07:41.481Z,99779.69
2022-09-28T20:10:13.373Z,99785.59
2022-09-28T20:12:45.250Z,99785.22
2022-09-28T20:15:17.527Z,99785.66
2022-09-28T20:17:49.398Z,99778.81
2022-09-28T20:20:21.382Z,99785.28
2022-09-28T20:22:54.334Z,99782.97
2022-09-28T20:25:26.380Z,99791.59
2022-09-28T20:27:58.748Z,99793.94
2022-09-28T20:30:30.891Z,99797.31
2022-09-28T20:33:02.904Z,99799.41
2022-09-28T20:35:34.828Z,99805.88
2022-09-28T20:38:09.706Z,99798.22
2022-09-28T20:40:42.110Z,99800.94
2022-09-28T20:43:15.163Z,99797.59
2022-09-28T20:45:47.018Z,99801.38
2022-09-28T20:48:19.632Z,99804.09
2022-09-28T20:51:10.438Z,99804.09
2022-09-28T20:53:43.297Z,99802.19
2022-09-28T20:56:19.741Z,99800.78
2022-09-28T20:58:52.325Z,99800.63
2022-09-28T21:01:26.758Z,99802.72
2022-09-28T21:04:00.433Z,99803.53
2022-09-28T21:06:34.759Z,99806.50
2022-09-28T21:09:07.765Z,99812.34
2022-09-28T21:11:40.261Z,99811.16
2022-09-28T21:14:12.233Z,99813.25
2022-09-28T21:16:44.083Z,99811.59
2022-09-28T21:19:15.965Z,99817.25
2022-09-28T21:21:48.009Z,99813.31
2022-09-28T21:24:20.108Z,99816.25
2022-09-28T21:26:52.166Z,99815.03
2022-09-28T21:29:24.116Z,99817.75
2022-09-28T21:31:56.024Z,99815.47
2022-09-28T21:34:27.841Z,99815.47
2022-09-28T21:36:59.701Z,99819.69
2022-09-28T21:39:31.640Z,99816.38
2022-09-28T21:42:03.493Z,99819.31
2022-09-28T21:44:35.357Z,99825.97
2022-09-28T21:47:07.236Z,99816.44
2022-09-28T21:49:39.076Z,99824.78
2022-09-28T21:52:10.893Z,99833.16
2022-09-28T21:54:42.728Z,99827.94
2022-09-28T21:57:14.531Z,99830.03
2022-09-28T21:59:47.354Z,99835.06
2022-09-28T22:02:19.207Z,99833.63
2022-09-28T22:04:51.735Z,99837.41
2022-09-28T22:07:24.065Z,99831.19
2022-09-28T22:09:56.060Z,99832.06
2022-09-28T22:12:29.800Z,99834.59
2022-09-28T22:15:01.859Z,99829.00
2022-09-28T22:17:33.950Z,99834.66
2022-09-28T22:20:06.633Z,99835.50
2022-09-28T22:22:38.613Z,99832.78
2022-09-28T22:25:10.463Z,99837.56
2022-09-28T22:27:42.563Z,99836.13
2022-09-28T22:30:14.537Z,99843.44
2022-09-28T22:32:46.492Z,99842.81
2022-09-28T22:35:18.373Z,99837.41
2022-09-28T22:37:50.210Z,99841.78
2022-09-28T22:40:22.735Z,99843.19
2022-09-28T22:42:54.641Z,99832.16
2022-09-28T22:45:26.925Z,99841.50
2022-09-28T22:47:59.987Z,99836.69
2022-09-28T22:50:32.014Z,99846.50
2022-09-28T22:53:03.925Z,99839.41
2022-09-28T22:55:35.861Z,99846.72
2022-09-28T22:58:07.727Z,99842.53
2022-09-28T23:00:39.848Z,99844.22
2022-09-28T23:03:11.784Z,99844.22
2022-09-28T23:05:56.427Z,99845.88
2022-09-28T23:08:28.403Z,99854.00
2022-09-28T23:11:00.892Z,99858.78
2022-09-28T23:13:32.971Z,99853.38
2022-09-28T23:16:07.338Z,99857.94
2022-09-28T23:18:42.419Z,99856.31
2022-09-28T23:21:16.058Z,99860.28
2022-09-28T23:23:53.330Z,99858.84
2022-09-28T23:26:28.036Z,99857.41
2022-09-28T23:29:00.506Z,99851.38
2022-09-28T23:31:33.299Z,99853.25
2022-09-28T23:34:06.417Z,99853.25
2022-09-28T23:36:38.283Z,99857.84
2022-09-28T23:39:11.657Z,99853.47
2022-09-28T23:41:43.513Z,99850.13
2022-09-28T23:44:15.345Z,99860.16
2022-09-28T23:46:47.213Z,99849.75
2022-09-28T23:49:19.359Z,99860.19
2022-09-28T23:51:51.327Z,99858.53
2022-09-28T23:54:23.253Z,99854.78
2022-09-28T23:56:55.146Z,99852.91
2022-09-28T23:59:27.043Z,99857.47
